Terminal Aerodrome Forecast
Issued by NWS Portland, OR

Current Version | Previous Version | Text Only | Print | Product List | Glossary On
Versions: 1 2 3 4 5 6 7 8 9 10 11 12 13 14 15 16 17 18 19 20
000
FTUS46 KPQR 251419 AAB
TAFEUG
TAF AMD
KEUG 251419Z 2514/2612 17010KT P6SM -RA BKN050 OVC070
     FM251700 18017G30KT 5SM -RA OVC050
     FM252000 19022G39KT 6SM -RA BR SCT025 OVC050
     FM260200 21015G25KT P6SM -SHRA BKN030 BKN050
     FM260500 21010KT P6SM -SHRA BKN030 BKN050=

USA.gov is the U.S. government's official web portal to all federal, state and local government web resources and services.